sensor_id;sensor_type;location;lat;lon;timestamp;pressure;altitude;pressure_sealevel;temperature;humidity
29247;BME280;16272;48.188;9.964;2022-11-20T00:02:18;95249.88;;;5.74;67.15
29247;BME280;16272;48.188;9.964;2022-11-20T00:04:43;95251.47;;;6.16;66.17
29247;BME280;16272;48.188;9.964;2022-11-20T00:07:09;95252.16;;;5.98;66.45
29247;BME280;16272;48.188;9.964;2022-11-20T00:09:34;95252.66;;;5.82;66.66
29247;BME280;16272;48.188;9.964;2022-11-20T00:11:59;95266.81;;;5.81;66.37
29247;BME280;16272;48.188;9.964;2022-11-20T00:14:25;95262.47;;;5.70;66.44
29247;BME280;16272;48.188;9.964;2022-11-20T00:16:50;95265.47;;;6.06;65.61
29247;BME280;16272;48.188;9.964;2022-11-20T00:19:15;95263.72;;;5.66;66.87
29247;BME280;16272;48.188;9.964;2022-11-20T00:21:41;95266.66;;;5.83;67.08
29247;BME280;16272;48.188;9.964;2022-11-20T00:24:08;95271.03;;;6.03;66.17
29247;BME280;16272;48.188;9.964;2022-11-20T00:26:34;95270.63;;;6.37;65.07
29247;BME280;16272;48.188;9.964;2022-11-20T00:29:00;95270.75;;;6.06;64.97
29247;BME280;16272;48.188;9.964;2022-11-20T00:31:26;95275.38;;;5.74;65.28
29247;BME280;16272;48.188;9.964;2022-11-20T00:33:52;95276.63;;;5.69;65.90
29247;BME280;16272;48.188;9.964;2022-11-20T00:36:23;95285.28;;;5.50;67.53
29247;BME280;16272;48.188;9.964;2022-11-20T00:38:53;95277.25;;;5.52;67.10
29247;BME280;16272;48.188;9.964;2022-11-20T00:41:19;95275.88;;;5.48;66.79
29247;BME280;16272;48.188;9.964;2022-11-20T00:43:44;95274.78;;;5.60;66.64
29247;BME280;16272;48.188;9.964;2022-11-20T00:46:13;95278.41;;;5.28;68.20
29247;BME280;16272;48.188;9.964;2022-11-20T00:48:39;95283.69;;;5.59;67.04
29247;BME280;16272;48.188;9.964;2022-11-20T00:51:04;95288.34;;;5.56;67.45
29247;BME280;16272;48.188;9.964;2022-11-20T00:53:30;95288.09;;;5.59;66.93
29247;BME280;16272;48.188;9.964;2022-11-20T00:56:00;95289.69;;;5.40;67.07
29247;BME280;16272;48.188;9.964;2022-11-20T00:58:29;95293.22;;;5.29;68.04
29247;BME280;16272;48.188;9.964;2022-11-20T01:01:00;95297.38;;;5.53;67.90
29247;BME280;16272;48.188;9.964;2022-11-20T01:03:26;95291.94;;;5.45;68.61
29247;BME280;16272;48.188;9.964;2022-11-20T01:05:51;95291.81;;;5.46;67.90
29247;BME280;16272;48.188;9.964;2022-11-20T01:08:17;95287.72;;;5.32;67.59
29247;BME280;16272;48.188;9.964;2022-11-20T01:10:42;95294.22;;;5.59;67.19
29247;BME280;16272;48.188;9.964;2022-11-20T01:13:07;95291.44;;;5.70;66.36
29247;BME280;16272;48.188;9.964;2022-11-20T01:15:51;95291.69;;;5.98;65.39
29247;BME280;16272;48.188;9.964;2022-11-20T01:18:17;95297.00;;;6.18;64.93
29247;BME280;16272;48.188;9.964;2022-11-20T01:20:42;95293.41;;;6.19;65.30
29247;BME280;16272;48.188;9.964;2022-11-20T01:23:07;95295.75;;;6.22;65.41
29247;BME280;16272;48.188;9.964;2022-11-20T01:25:34;95301.47;;;6.27;64.92
29247;BME280;16272;48.188;9.964;2022-11-20T01:27:59;95297.69;;;6.00;65.89
29247;BME280;16272;48.188;9.964;2022-11-20T01:30:25;95302.84;;;5.71;66.62
29247;BME280;16272;48.188;9.964;2022-11-20T01:32:50;95306.09;;;5.53;67.24
29247;BME280;16272;48.188;9.964;2022-11-20T01:35:16;95305.59;;;5.69;66.95
29247;BME280;16272;48.188;9.964;2022-11-20T01:37:41;95311.66;;;5.60;67.70
29247;BME280;16272;48.188;9.964;2022-11-20T01:40:07;95313.41;;;5.81;66.77
29247;BME280;16272;48.188;9.964;2022-11-20T01:42:32;95306.47;;;5.80;67.36
29247;BME280;16272;48.188;9.964;2022-11-20T01:45:46;95309.06;;;6.11;66.94
29247;BME280;16272;48.188;9.964;2022-11-20T01:48:19;95307.31;;;5.90;67.14
29247;BME280;16272;48.188;9.964;2022-11-20T01:50:46;95306.84;;;6.06;66.66
29247;BME280;16272;48.188;9.964;2022-11-20T01:53:14;95309.63;;;6.24;66.30
29247;BME280;16272;48.188;9.964;2022-11-20T01:55:47;95314.53;;;5.88;67.00
29247;BME280;16272;48.188;9.964;2022-11-20T01:58:15;95309.19;;;5.99;66.86
29247;BME280;16272;48.188;9.964;2022-11-20T02:00:41;95314.47;;;5.68;66.93
29247;BME280;16272;48.188;9.964;2022-11-20T02:03:11;95306.19;;;5.83;67.25
29247;BME280;16272;48.188;9.964;2022-11-20T02:08:08;95306.31;;;6.22;66.11
29247;BME280;16272;48.188;9.964;2022-11-20T02:10:34;95312.69;;;6.19;66.85
29247;BME280;16272;48.188;9.964;2022-11-20T02:12:59;95316.59;;;6.44;66.47
29247;BME280;16272;48.188;9.964;2022-11-20T02:15:43;95313.50;;;6.10;67.27
29247;BME280;16272;48.188;9.964;2022-11-20T02:18:10;95307.44;;;6.49;66.09
29247;BME280;16272;48.188;9.964;2022-11-20T02:20:37;95300.47;;;6.77;65.98
29247;BME280;16272;48.188;9.964;2022-11-20T02:23:13;95312.16;;;6.55;66.04
29247;BME280;16272;48.188;9.964;2022-11-20T02:25:42;95313.41;;;6.60;66.46
29247;BME280;16272;48.188;9.964;2022-11-20T02:28:09;95305.06;;;6.85;65.52
29247;BME280;16272;48.188;9.964;2022-11-20T02:30:35;95308.97;;;6.80;65.91
29247;BME280;16272;48.188;9.964;2022-11-20T02:33:00;95315.22;;;6.79;65.82
29247;BME280;16272;48.188;9.964;2022-11-20T02:37:53;95309.53;;;6.74;66.43
29247;BME280;16272;48.188;9.964;2022-11-20T02:40:19;95309.53;;;6.74;66.34
29247;BME280;16272;48.188;9.964;2022-11-20T02:42:45;95316.63;;;6.64;66.63
29247;BME280;16272;48.188;9.964;2022-11-20T02:45:11;95313.09;;;7.03;65.90
29247;BME280;16272;48.188;9.964;2022-11-20T02:47:36;95311.34;;;6.64;66.53
29247;BME280;16272;48.188;9.964;2022-11-20T02:50:03;95308.25;;;6.69;67.09
29247;BME280;16272;48.188;9.964;2022-11-20T02:52:28;95301.19;;;7.36;64.83
29247;BME280;16272;48.188;9.964;2022-11-20T02:54:55;95312.44;;;6.61;66.62
29247;BME280;16272;48.188;9.964;2022-11-20T02:57:20;95304.25;;;6.55;66.87
29247;BME280;16272;48.188;9.964;2022-11-20T02:59:45;95302.09;;;7.17;65.01
29247;BME280;16272;48.188;9.964;2022-11-20T03:02:11;95303.41;;;6.64;66.57
29247;BME280;16272;48.188;9.964;2022-11-20T03:04:36;95299.91;;;6.93;65.73
29247;BME280;16272;48.188;9.964;2022-11-20T03:07:02;95305.63;;;6.78;65.68
29247;BME280;16272;48.188;9.964;2022-11-20T03:09:27;95306.50;;;7.26;64.61
29247;BME280;16272;48.188;9.964;2022-11-20T03:11:52;95304.88;;;7.15;64.30
29247;BME280;16272;48.188;9.964;2022-11-20T03:14:18;95311.88;;;6.87;65.50
29247;BME280;16272;48.188;9.964;2022-11-20T03:16:43;95314.38;;;6.50;65.87
29247;BME280;16272;48.188;9.964;2022-11-20T03:19:08;95307.84;;;6.73;66.11
29247;BME280;16272;48.188;9.964;2022-11-20T03:21:34;95306.59;;;6.68;65.71
29247;BME280;16272;48.188;9.964;2022-11-20T03:24:00;95301.19;;;6.89;65.33
29247;BME280;16272;48.188;9.964;2022-11-20T03:26:26;95304.38;;;6.83;65.38
29247;BME280;16272;48.188;9.964;2022-11-20T03:28:57;95302.94;;;7.08;65.00
29247;BME280;16272;48.188;9.964;2022-11-20T03:31:25;95303.09;;;6.87;65.84
29247;BME280;16272;48.188;9.964;2022-11-20T03:33:51;95302.91;;;7.17;64.74
29247;BME280;16272;48.188;9.964;2022-11-20T03:36:18;95300.31;;;7.45;64.31
29247;BME280;16272;48.188;9.964;2022-11-20T03:38:44;95301.00;;;6.90;65.19
29247;BME280;16272;48.188;9.964;2022-11-20T03:41:15;95302.69;;;6.81;66.15
29247;BME280;16272;48.188;9.964;2022-11-20T03:43:41;95295.44;;;7.03;65.20
29247;BME280;16272;48.188;9.964;2022-11-20T03:46:07;95299.38;;;6.70;66.17
29247;BME280;16272;48.188;9.964;2022-11-20T03:48:32;95298.47;;;7.08;65.12
29247;BME280;16272;48.188;9.964;2022-11-20T03:51:13;95305.84;;;7.14;64.99
29247;BME280;16272;48.188;9.964;2022-11-20T03:53:40;95300.91;;;6.62;66.46
29247;BME280;16272;48.188;9.964;2022-11-20T03:56:07;95299.91;;;6.83;66.12
29247;BME280;16272;48.188;9.964;2022-11-20T03:58:37;95296.19;;;6.86;65.70
29247;BME280;16272;48.188;9.964;2022-11-20T04:01:18;95299.34;;;6.99;65.34
29247;BME280;16272;48.188;9.964;2022-11-20T04:03:44;95298.56;;;6.69;66.23
29247;BME280;16272;48.188;9.964;2022-11-20T04:08:39;95300.91;;;6.72;66.90
29247;BME280;16272;48.188;9.964;2022-11-20T04:11:31;95299.53;;;7.35;64.75
29247;BME280;16272;48.188;9.964;2022-11-20T04:13:59;95304.16;;;7.61;63.76
29247;BME280;16272;48.188;9.964;2022-11-20T04:16:25;95294.19;;;7.07;65.01
29247;BME280;16272;48.188;9.964;2022-11-20T04:18:55;95297.69;;;6.78;66.28
29247;BME280;16272;48.188;9.964;2022-11-20T04:21:21;95296.44;;;7.02;65.71
29247;BME280;16272;48.188;9.964;2022-11-20T04:23:46;95294.28;;;7.25;64.38
29247;BME280;16272;48.188;9.964;2022-11-20T04:26:12;95297.50;;;7.57;63.72
29247;BME280;16272;48.188;9.964;2022-11-20T04:28:38;95287.66;;;7.77;62.99
29247;BME280;16272;48.188;9.964;2022-11-20T04:31:12;95292.50;;;7.53;63.57
29247;BME280;16272;48.188;9.964;2022-11-20T04:33:37;95287.22;;;7.53;63.29
29247;BME280;16272;48.188;9.964;2022-11-20T04:36:07;95277.09;;;7.49;63.62
29247;BME280;16272;48.188;9.964;2022-11-20T04:38:35;95278.59;;;7.14;65.49
29247;BME280;16272;48.188;9.964;2022-11-20T04:41:02;95278.91;;;7.48;64.19
29247;BME280;16272;48.188;9.964;2022-11-20T04:43:29;95280.25;;;7.25;64.38
29247;BME280;16272;48.188;9.964;2022-11-20T04:45:56;95280.03;;;7.36;64.94
29247;BME280;16272;48.188;9.964;2022-11-20T04:48:22;95278.25;;;6.89;66.27
29247;BME280;16272;48.188;9.964;2022-11-20T04:50:48;95284.09;;;6.54;67.16
29247;BME280;16272;48.188;9.964;2022-11-20T04:53:13;95282.59;;;6.51;68.18
29247;BME280;16272;48.188;9.964;2022-11-20T04:55:38;95291.97;;;7.03;66.28
29247;BME280;16272;48.188;9.964;2022-11-20T04:58:04;95283.13;;;6.74;66.82
29247;BME280;16272;48.188;9.964;2022-11-20T05:00:29;95291.16;;;6.92;66.84
29247;BME280;16272;48.188;9.964;2022-11-20T05:02:55;95290.44;;;7.00;66.20
29247;BME280;16272;48.188;9.964;2022-11-20T05:05:20;95298.44;;;7.18;65.52
29247;BME280;16272;48.188;9.964;2022-11-20T05:07:45;95310.00;;;7.27;64.76
29247;BME280;16272;48.188;9.964;2022-11-20T05:10:11;95305.75;;;7.44;64.50
29247;BME280;16272;48.188;9.964;2022-11-20T05:12:36;95305.25;;;7.30;65.27
29247;BME280;16272;48.188;9.964;2022-11-20T05:15:02;95292.19;;;7.29;65.30
29247;BME280;16272;48.188;9.964;2022-11-20T05:17:27;95302.59;;;7.30;65.63
29247;BME280;16272;48.188;9.964;2022-11-20T05:19:53;95314.53;;;7.72;64.49
29247;BME280;16272;48.188;9.964;2022-11-20T05:22:18;95310.81;;;7.27;65.20
29247;BME280;16272;48.188;9.964;2022-11-20T05:24:43;95311.28;;;7.03;66.39
29247;BME280;16272;48.188;9.964;2022-11-20T05:27:09;95307.28;;;7.46;64.46
29247;BME280;16272;48.188;9.964;2022-11-20T05:29:34;95310.16;;;7.63;64.38
29247;BME280;16272;48.188;9.964;2022-11-20T05:31:59;95307.50;;;7.15;65.97
29247;BME280;16272;48.188;9.964;2022-11-20T05:34:25;95307.81;;;6.93;65.74
29247;BME280;16272;48.188;9.964;2022-11-20T05:36:50;95320.31;;;7.58;64.41
29247;BME280;16272;48.188;9.964;2022-11-20T05:39:15;95316.78;;;7.20;65.54
29247;BME280;16272;48.188;9.964;2022-11-20T05:41:40;95313.75;;;7.14;65.48
29247;BME280;16272;48.188;9.964;2022-11-20T05:44:06;95319.06;;;7.05;66.09
29247;BME280;16272;48.188;9.964;2022-11-20T05:46:31;95314.53;;;6.58;67.40
29247;BME280;16272;48.188;9.964;2022-11-20T05:48:57;95318.66;;;6.80;66.76
29247;BME280;16272;48.188;9.964;2022-11-20T05:51:24;95304.34;;;7.02;66.15
29247;BME280;16272;48.188;9.964;2022-11-20T05:53:49;95312.53;;;7.09;65.89
29247;BME280;16272;48.188;9.964;2022-11-20T05:56:16;95311.81;;;7.54;64.36
29247;BME280;16272;48.188;9.964;2022-11-20T05:58:42;95319.03;;;7.14;66.19
29247;BME280;16272;48.188;9.964;2022-11-20T06:01:22;95319.06;;;6.85;66.50
29247;BME280;16272;48.188;9.964;2022-11-20T06:03:49;95318.75;;;7.17;65.56
29247;BME280;16272;48.188;9.964;2022-11-20T06:06:16;95317.84;;;6.89;66.41
29247;BME280;16272;48.188;9.964;2022-11-20T06:08:42;95324.50;;;6.84;66.75
29247;BME280;16272;48.188;9.964;2022-11-20T06:11:08;95321.13;;;7.21;65.71
29247;BME280;16272;48.188;9.964;2022-11-20T06:13:34;95320.06;;;6.74;66.52
29247;BME280;16272;48.188;9.964;2022-11-20T06:16:00;95325.75;;;6.99;66.30
29247;BME280;16272;48.188;9.964;2022-11-20T06:18:30;95326.03;;;6.86;66.94
29247;BME280;16272;48.188;9.964;2022-11-20T06:21:00;95319.19;;;7.13;66.24
29247;BME280;16272;48.188;9.964;2022-11-20T06:23:28;95324.59;;;7.11;65.97
29247;BME280;16272;48.188;9.964;2022-11-20T06:25:53;95322.66;;;7.13;65.84
29247;BME280;16272;48.188;9.964;2022-11-20T06:28:18;95325.59;;;7.01;65.68
29247;BME280;16272;48.188;9.964;2022-11-20T06:30:44;95317.56;;;6.73;66.46
29247;BME280;16272;48.188;9.964;2022-11-20T06:33:10;95326.03;;;6.67;66.96
29247;BME280;16272;48.188;9.964;2022-11-20T06:35:35;95318.66;;;6.90;66.57
29247;BME280;16272;48.188;9.964;2022-11-20T06:38:01;95316.78;;;7.20;65.64
29247;BME280;16272;48.188;9.964;2022-11-20T06:40:26;95320.72;;;7.06;65.02
29247;BME280;16272;48.188;9.964;2022-11-20T06:42:53;95323.53;;;6.85;65.98
29247;BME280;16272;48.188;9.964;2022-11-20T06:45:18;95330.75;;;6.53;67.17
29247;BME280;16272;48.188;9.964;2022-11-20T06:47:44;95323.81;;;6.81;66.45
29247;BME280;16272;48.188;9.964;2022-11-20T06:50:09;95318.44;;;7.30;64.58
29247;BME280;16272;48.188;9.964;2022-11-20T06:52:34;95326.47;;;7.48;64.25
29247;BME280;16272;48.188;9.964;2022-11-20T06:55:00;95325.56;;;7.20;64.78
29247;BME280;16272;48.188;9.964;2022-11-20T06:57:25;95329.63;;;7.05;65.50
29247;BME280;16272;48.188;9.964;2022-11-20T06:59:50;95334.38;;;6.81;66.50
29247;BME280;16272;48.188;9.964;2022-11-20T07:02:15;95345.78;;;6.53;67.12
29247;BME280;16272;48.188;9.964;2022-11-20T07:04:41;95337.72;;;6.64;66.67
29247;BME280;16272;48.188;9.964;2022-11-20T07:07:06;95336.88;;;6.73;66.91
29247;BME280;16272;48.188;9.964;2022-11-20T07:09:32;95334.38;;;6.81;67.12
29247;BME280;16272;48.188;9.964;2022-11-20T07:11:58;95333.81;;;6.88;66.72
29247;BME280;16272;48.188;9.964;2022-11-20T07:14:23;95353.81;;;6.51;68.03
29247;BME280;16272;48.188;9.964;2022-11-20T07:16:49;95337.41;;;7.06;65.95
29247;BME280;16272;48.188;9.964;2022-11-20T07:19:14;95346.72;;;7.01;66.07
29247;BME280;16272;48.188;9.964;2022-11-20T07:21:39;95345.72;;;7.21;65.73
29247;BME280;16272;48.188;9.964;2022-11-20T07:24:05;95348.44;;;7.49;64.37
29247;BME280;16272;48.188;9.964;2022-11-20T07:26:30;95353.97;;;7.55;64.60
29247;BME280;16272;48.188;9.964;2022-11-20T07:28:55;95357.72;;;6.76;66.64
29247;BME280;16272;48.188;9.964;2022-11-20T07:31:21;95358.25;;;6.60;67.27
29247;BME280;16272;48.188;9.964;2022-11-20T07:33:46;95352.56;;;6.94;66.39
29247;BME280;16272;48.188;9.964;2022-11-20T07:36:11;95363.63;;;7.27;65.43
29247;BME280;16272;48.188;9.964;2022-11-20T07:38:37;95361.91;;;7.46;65.19
29247;BME280;16272;48.188;9.964;2022-11-20T07:41:02;95355.13;;;7.43;65.30
29247;BME280;16272;48.188;9.964;2022-11-20T07:43:28;95348.31;;;7.41;64.93
29247;BME280;16272;48.188;9.964;2022-11-20T07:45:57;95345.69;;;7.31;65.60
29247;BME280;16272;48.188;9.964;2022-11-20T07:48:24;95357.69;;;7.15;65.70
29247;BME280;16272;48.188;9.964;2022-11-20T07:50:53;95349.84;;;7.43;64.40
29247;BME280;16272;48.188;9.964;2022-11-20T07:53:18;95343.63;;;8.00;63.34
29247;BME280;16272;48.188;9.964;2022-11-20T07:55:46;95345.97;;;8.03;63.24
29247;BME280;16272;48.188;9.964;2022-11-20T07:58:11;95342.66;;;8.01;63.37
29247;BME280;16272;48.188;9.964;2022-11-20T08:00:36;95345.75;;;7.59;64.42
29247;BME280;16272;48.188;9.964;2022-11-20T08:03:03;95350.28;;;7.76;64.85
29247;BME280;16272;48.188;9.964;2022-11-20T08:05:29;95349.88;;;8.08;63.09
29247;BME280;16272;48.188;9.964;2022-11-20T08:07:54;95357.78;;;7.81;63.76
29247;BME280;16272;48.188;9.964;2022-11-20T08:10:20;95357.66;;;7.82;63.89
29247;BME280;16272;48.188;9.964;2022-11-20T08:12:52;95353.72;;;7.49;65.19
29247;BME280;16272;48.188;9.964;2022-11-20T08:15:38;95354.22;;;7.62;65.02
29247;BME280;16272;48.188;9.964;2022-11-20T08:18:09;95365.66;;;7.53;65.56
29247;BME280;16272;48.188;9.964;2022-11-20T08:20:35;95359.00;;;7.49;65.09
29247;BME280;16272;48.188;9.964;2022-11-20T08:23:02;95348.03;;;7.81;65.25
29247;BME280;16272;48.188;9.964;2022-11-20T08:25:31;95359.31;;;8.11;64.01
29247;BME280;16272;48.188;9.964;2022-11-20T08:28:02;95362.63;;;8.13;63.52
29247;BME280;16272;48.188;9.964;2022-11-20T08:30:28;95354.47;;;7.69;64.99
29247;BME280;16272;48.188;9.964;2022-11-20T08:32:54;95360.06;;;8.21;63.80
29247;BME280;16272;48.188;9.964;2022-11-20T08:35:21;95356.41;;;7.77;64.46
29247;BME280;16272;48.188;9.964;2022-11-20T08:37:47;95365.19;;;8.05;64.57
29247;BME280;16272;48.188;9.964;2022-11-20T08:40:12;95361.16;;;8.28;64.10
29247;BME280;16272;48.188;9.964;2022-11-20T08:42:49;95358.03;;;8.15;64.08
29247;BME280;16272;48.188;9.964;2022-11-20T08:45:15;95361.47;;;7.60;64.32
29247;BME280;16272;48.188;9.964;2022-11-20T08:47:41;95363.91;;;7.81;64.90
29247;BME280;16272;48.188;9.964;2022-11-20T08:50:08;95363.53;;;8.04;64.53
29247;BME280;16272;48.188;9.964;2022-11-20T08:52:34;95366.94;;;7.86;63.45
29247;BME280;16272;48.188;9.964;2022-11-20T08:54:59;95363.34;;;8.15;63.62
29247;BME280;16272;48.188;9.964;2022-11-20T08:57:24;95372.00;;;7.70;64.53
29247;BME280;16272;48.188;9.964;2022-11-20T08:59:50;95374.34;;;8.10;63.79
29247;BME280;16272;48.188;9.964;2022-11-20T09:02:15;95384.81;;;7.65;65.64
29247;BME280;16272;48.188;9.964;2022-11-20T09:04:40;95382.22;;;7.93;64.33
29247;BME280;16272;48.188;9.964;2022-11-20T09:07:06;95381.41;;;8.48;62.29
29247;BME280;16272;48.188;9.964;2022-11-20T09:09:31;95378.50;;;8.13;63.73
29247;BME280;16272;48.188;9.964;2022-11-20T09:11:57;95381.38;;;8.02;64.89
29247;BME280;16272;48.188;9.964;2022-11-20T09:14:23;95377.09;;;8.19;63.40
29247;BME280;16272;48.188;9.964;2022-11-20T09:16:54;95371.38;;;8.51;63.99
29247;BME280;16272;48.188;9.964;2022-11-20T09:19:19;95378.09;;;8.36;63.14
29247;BME280;16272;48.188;9.964;2022-11-20T09:21:44;95372.34;;;8.22;64.10
29247;BME280;16272;48.188;9.964;2022-11-20T09:24:10;95366.22;;;8.22;63.95
29247;BME280;16272;48.188;9.964;2022-11-20T09:26:35;95364.41;;;8.50;62.40
29247;BME280;16272;48.188;9.964;2022-11-20T09:29:00;95365.41;;;8.12;63.06
29247;BME280;16272;48.188;9.964;2022-11-20T09:31:26;95374.22;;;8.12;62.92
29247;BME280;16272;48.188;9.964;2022-11-20T09:33:52;95361.47;;;8.71;62.29
29247;BME280;16272;48.188;9.964;2022-11-20T09:36:18;95375.97;;;8.67;62.36
29247;BME280;16272;48.188;9.964;2022-11-20T09:38:47;95362.38;;;8.62;62.13
29247;BME280;16272;48.188;9.964;2022-11-20T09:44:48;95358.47;;;8.66;61.97
29247;BME280;16272;48.188;9.964;2022-11-20T09:52:56;95357.13;;;8.52;62.93
29247;BME280;16272;48.188;9.964;2022-11-20T09:55:25;95365.09;;;8.70;61.46
29247;BME280;16272;48.188;9.964;2022-11-20T09:57:51;95359.72;;;8.80;61.63
29247;BME280;16272;48.188;9.964;2022-11-20T10:00:18;95361.69;;;8.78;60.57
29247;BME280;16272;48.188;9.964;2022-11-20T10:03:01;95366.25;;;8.68;61.39
29247;BME280;16272;48.188;9.964;2022-11-20T10:05:33;95366.38;;;8.48;62.44
29247;BME280;16272;48.188;9.964;2022-11-20T10:08:13;95370.47;;;8.60;62.42
29247;BME280;16272;48.188;9.964;2022-11-20T10:10:44;95366.94;;;8.42;63.63
29247;BME280;16272;48.188;9.964;2022-11-20T10:13:31;95358.03;;;9.15;61.62
29247;BME280;16272;48.188;9.964;2022-11-20T10:19:39;95349.72;;;8.74;60.28
29247;BME280;16272;48.188;9.964;2022-11-20T10:22:34;95363.75;;;8.66;62.47
29247;BME280;16272;48.188;9.964;2022-11-20T10:30:11;95349.13;;;8.80;60.58
29247;BME280;16272;48.188;9.964;2022-11-20T10:32:43;95344.78;;;8.71;61.03
29247;BME280;16272;48.188;9.964;2022-11-20T10:35:25;95357.75;;;8.82;60.49
29247;BME280;16272;48.188;9.964;2022-11-20T10:37:58;95353.38;;;8.73;61.89
29247;BME280;16272;48.188;9.964;2022-11-20T10:40:35;95355.03;;;8.92;60.77
29247;BME280;16272;48.188;9.964;2022-11-20T10:43:10;95361.25;;;8.82;60.73
29247;BME280;16272;48.188;9.964;2022-11-20T10:45:56;95362.97;;;8.92;60.62
29247;BME280;16272;48.188;9.964;2022-11-20T10:48:27;95349.25;;;8.15;62.31
29247;BME280;16272;48.188;9.964;2022-11-20T10:51:21;95354.97;;;8.83;60.44
29247;BME280;16272;48.188;9.964;2022-11-20T10:57:30;95346.78;;;8.95;59.73
29247;BME280;16272;48.188;9.964;2022-11-20T10:59:59;95338.63;;;9.32;60.03
29247;BME280;16272;48.188;9.964;2022-11-20T11:02:34;95335.44;;;8.67;60.41
29247;BME280;16272;48.188;9.964;2022-11-20T11:05:43;95339.47;;;8.71;61.19
29247;BME280;16272;48.188;9.964;2022-11-20T11:08:14;95336.75;;;8.62;60.33
29247;BME280;16272;48.188;9.964;2022-11-20T11:13:24;95334.34;;;8.41;61.68
29247;BME280;16272;48.188;9.964;2022-11-20T11:15:50;95334.91;;;8.45;62.17
29247;BME280;16272;48.188;9.964;2022-11-20T11:18:33;95331.75;;;8.59;61.55
29247;BME280;16272;48.188;9.964;2022-11-20T11:21:04;95321.75;;;8.53;60.75
29247;BME280;16272;48.188;9.964;2022-11-20T11:26:01;95330.28;;;9.01;60.62
29247;BME280;16272;48.188;9.964;2022-11-20T11:28:27;95319.34;;;8.78;61.61
29247;BME280;16272;48.188;9.964;2022-11-20T11:30:54;95324.50;;;8.34;61.52
29247;BME280;16272;48.188;9.964;2022-11-20T11:33:22;95323.81;;;8.77;61.30
29247;BME280;16272;48.188;9.964;2022-11-20T11:35:50;95314.88;;;8.78;60.19
29247;BME280;16272;48.188;9.964;2022-11-20T11:38:21;95310.78;;;8.84;61.12
29247;BME280;16272;48.188;9.964;2022-11-20T11:40:49;95299.69;;;9.07;60.55
29247;BME280;16272;48.188;9.964;2022-11-20T11:43:20;95300.66;;;8.79;61.20
29247;BME280;16272;48.188;9.964;2022-11-20T11:51:47;95304.66;;;8.65;60.61
29247;BME280;16272;48.188;9.964;2022-11-20T11:54:28;95297.41;;;8.86;61.08
29247;BME280;16272;48.188;9.964;2022-11-20T11:56:59;95300.28;;;8.56;61.80
29247;BME280;16272;48.188;9.964;2022-11-20T11:59:33;95294.13;;;8.74;61.86
29247;BME280;16272;48.188;9.964;2022-11-20T12:02:15;95292.19;;;9.20;61.03
29247;BME280;16272;48.188;9.964;2022-11-20T12:04:54;95292.06;;;9.04;60.41
29247;BME280;16272;48.188;9.964;2022-11-20T12:07:39;95300.81;;;8.60;62.09
29247;BME280;16272;48.188;9.964;2022-11-20T12:10:15;95298.75;;;8.72;62.39
29247;BME280;16272;48.188;9.964;2022-11-20T12:12:49;95302.84;;;8.84;61.54
29247;BME280;16272;48.188;9.964;2022-11-20T12:15:25;95283.63;;;9.34;61.14
29247;BME280;16272;48.188;9.964;2022-11-20T12:17:51;95294.44;;;8.89;60.88
29247;BME280;16272;48.188;9.964;2022-11-20T12:20:16;95293.41;;;8.63;62.04
29247;BME280;16272;48.188;9.964;2022-11-20T12:23:02;95290.50;;;8.93;60.91
29247;BME280;16272;48.188;9.964;2022-11-20T12:25:35;95294.25;;;8.90;62.55
29247;BME280;16272;48.188;9.964;2022-11-20T12:28:13;95278.44;;;8.98;62.00
29247;BME280;16272;48.188;9.964;2022-11-20T12:30:48;95285.69;;;9.14;61.87
29247;BME280;16272;48.188;9.964;2022-11-20T12:33:51;95278.03;;;9.11;62.04
29247;BME280;16272;48.188;9.964;2022-11-20T12:36:27;95276.91;;;8.70;62.90
29247;BME280;16272;48.188;9.964;2022-11-20T12:45:28;95276.59;;;9.17;61.92
29247;BME280;16272;48.188;9.964;2022-11-20T12:48:24;95269.00;;;9.22;61.74
29247;BME280;16272;48.188;9.964;2022-11-20T12:53:42;95272.16;;;8.99;61.10
29247;BME280;16272;48.188;9.964;2022-11-20T12:56:23;95266.88;;;8.99;61.35
29247;BME280;16272;48.188;9.964;2022-11-20T13:01:35;95254.69;;;9.15;61.27
29247;BME280;16272;48.188;9.964;2022-11-20T13:06:46;95259.03;;;8.90;61.11
29247;BME280;16272;48.188;9.964;2022-11-20T13:09:15;95256.63;;;9.05;60.57
29247;BME280;16272;48.188;9.964;2022-11-20T13:14:39;95257.34;;;8.62;60.97
29247;BME280;16272;48.188;9.964;2022-11-20T13:19:56;95248.75;;;8.69;60.13
29247;BME280;16272;48.188;9.964;2022-11-20T13:25:09;95251.16;;;8.26;61.31
29247;BME280;16272;48.188;9.964;2022-11-20T13:27:35;95242.97;;;8.47;60.73
29247;BME280;16272;48.188;9.964;2022-11-20T13:30:21;95252.81;;;8.99;59.63
29247;BME280;16272;48.188;9.964;2022-11-20T13:33:29;95246.59;;;8.46;60.17
29247;BME280;16272;48.188;9.964;2022-11-20T13:38:24;95241.63;;;8.43;60.36
29247;BME280;16272;48.188;9.964;2022-11-20T13:40:56;95245.22;;;8.42;60.60
29247;BME280;16272;48.188;9.964;2022-11-20T13:43:42;95244.47;;;8.32;61.51
29247;BME280;16272;48.188;9.964;2022-11-20T13:46:09;95249.69;;;8.41;61.26
29247;BME280;16272;48.188;9.964;2022-11-20T13:48:47;95243.59;;;8.85;60.32
29247;BME280;16272;48.188;9.964;2022-11-20T13:54:20;95234.81;;;9.11;59.86
29247;BME280;16272;48.188;9.964;2022-11-20T13:57:25;95234.75;;;9.29;59.39
29247;BME280;16272;48.188;9.964;2022-11-20T14:00:12;95234.16;;;8.82;59.04
29247;BME280;16272;48.188;9.964;2022-11-20T14:02:40;95245.31;;;8.94;59.92
29247;BME280;16272;48.188;9.964;2022-11-20T14:05:18;95245.28;;;9.47;59.08
29247;BME280;16272;48.188;9.964;2022-11-20T14:07:45;95234.34;;;9.42;58.82
29247;BME280;16272;48.188;9.964;2022-11-20T14:10:28;95224.78;;;9.57;58.07
29247;BME280;16272;48.188;9.964;2022-11-20T14:12:54;95233.94;;;9.28;59.15
29247;BME280;16272;48.188;9.964;2022-11-20T14:15:31;95227.50;;;9.05;59.69
29247;BME280;16272;48.188;9.964;2022-11-20T14:17:58;95232.44;;;9.26;59.86
29247;BME280;16272;48.188;9.964;2022-11-20T14:20:27;95240.97;;;9.46;59.40
29247;BME280;16272;48.188;9.964;2022-11-20T14:22:54;95235.13;;;9.34;60.10
29247;BME280;16272;48.188;9.964;2022-11-20T14:25:22;95230.06;;;9.49;59.63
29247;BME280;16272;48.188;9.964;2022-11-20T14:28:00;95231.72;;;9.50;59.82
29247;BME280;16272;48.188;9.964;2022-11-20T14:30:29;95228.66;;;9.28;60.60